createdAt,value
2018-08-17T00:00:22.469Z,75.90
2018-08-17T00:02:50.828Z,75.75
2018-08-17T00:05:19.316Z,75.69
2018-08-17T00:07:47.648Z,74.76
2018-08-17T00:10:16.035Z,74.81
2018-08-17T00:12:44.389Z,75.12
2018-08-17T00:15:13.108Z,75.68
2018-08-17T00:17:41.855Z,76.13
2018-08-17T00:20:10.239Z,77.02
2018-08-17T00:22:38.568Z,77.49
2018-08-17T00:25:06.981Z,76.86
2018-08-17T00:27:35.327Z,75.70
2018-08-17T00:30:03.800Z,75.44
2018-08-17T00:32:32.148Z,75.51
2018-08-17T00:35:00.566Z,75.90
2018-08-17T00:37:29.188Z,76.36
2018-08-17T00:39:57.592Z,76.80
2018-08-17T00:42:25.978Z,77.67
2018-08-17T00:44:54.318Z,77.32
2018-08-17T00:47:22.705Z,77.85
2018-08-17T00:49:51.056Z,77.46
2018-08-17T00:52:19.819Z,77.50
2018-08-17T00:54:48.180Z,77.70
2018-08-17T00:57:16.547Z,78.94
2018-08-17T00:59:45.005Z,79.01
2018-08-17T01:02:13.689Z,77.98
2018-08-17T01:04:42.036Z,77.12
2018-08-17T01:07:10.450Z,78.09
2018-08-17T01:09:38.796Z,78.72
2018-08-17T01:12:07.176Z,79.16
2018-08-17T01:14:35.528Z,79.48
2018-08-17T01:17:03.920Z,79.43
2018-08-17T01:19:32.275Z,79.97
2018-08-17T01:22:01.860Z,79.62
2018-08-17T01:24:30.215Z,79.98
2018-08-17T01:26:58.615Z,79.05
2018-08-17T01:29:26.947Z,78.59
2018-08-17T01:31:55.311Z,78.94
2018-08-17T01:34:23.699Z,79.33
2018-08-17T01:36:52.611Z,80.47
2018-08-17T01:39:20.956Z,80.34
2018-08-17T01:41:49.321Z,80.52
2018-08-17T01:44:17.668Z,80.51
2018-08-17T01:46:46.033Z,80.48
2018-08-17T01:49:14.376Z,79.79
2018-08-17T01:51:43.129Z,79.79
2018-08-17T01:54:11.495Z,80.24
2018-08-17T01:56:39.872Z,79.10
2018-08-17T01:59:08.312Z,78.97
2018-08-17T02:01:37.165Z,79.48
2018-08-17T02:04:05.532Z,79.85
2018-08-17T02:06:34.224Z,80.22
2018-08-17T02:09:02.965Z,79.40
2018-08-17T02:11:31.839Z,80.15
2018-08-17T02:14:00.171Z,80.59
2018-08-17T02:16:28.919Z,81.47
2018-08-17T02:18:57.309Z,81.68
2018-08-17T02:21:25.672Z,82.07
2018-08-17T02:23:54.079Z,81.88
2018-08-17T02:26:22.464Z,80.62
2018-08-17T02:28:50.820Z,81.27
2018-08-17T02:31:19.260Z,80.71
2018-08-17T02:33:47.611Z,81.25
2018-08-17T02:36:15.993Z,80.48
2018-08-17T02:38:44.319Z,81.11
2018-08-17T02:41:12.724Z,81.07
2018-08-17T02:43:41.089Z,80.28
2018-08-17T02:46:09.496Z,80.88
2018-08-17T02:48:37.860Z,80.57
2018-08-17T02:51:06.332Z,80.93
2018-08-17T02:53:34.971Z,80.40
2018-08-17T02:56:03.369Z,81.07
2018-08-17T02:58:31.780Z,81.25
2018-08-17T03:01:00.428Z,81.00
2018-08-17T03:03:28.880Z,81.52
2018-08-17T03:05:57.363Z,81.29
2018-08-17T03:08:26.087Z,80.98
2018-08-17T03:10:54.459Z,81.50
2018-08-17T03:13:22.876Z,81.50
2018-08-17T03:15:51.314Z,82.35
2018-08-17T03:18:19.688Z,81.95
2018-08-17T03:20:48.016Z,81.81
2018-08-17T03:23:16.387Z,81.84
2018-08-17T03:25:44.748Z,81.79
2018-08-17T03:28:13.101Z,82.12
2018-08-17T03:30:41.569Z,82.04
2018-08-17T03:33:10.358Z,82.21
2018-08-17T03:35:38.737Z,83.03
2018-08-17T03:38:07.204Z,82.24
2018-08-17T03:40:35.517Z,81.88
2018-08-17T03:43:03.912Z,82.34
2018-08-17T03:45:32.251Z,82.89
2018-08-17T03:48:01.197Z,82.72
2018-08-17T03:50:29.549Z,83.35
2018-08-17T03:52:57.912Z,82.81
2018-08-17T03:55:26.280Z,82.76
2018-08-17T03:57:54.631Z,82.69
2018-08-17T04:00:23.036Z,82.76
2018-08-17T04:02:51.400Z,83.02
2018-08-17T04:05:20.189Z,83.31
2018-08-17T04:07:48.924Z,83.15
2018-08-17T04:10:17.283Z,82.85
2018-08-17T04:12:45.923Z,82.87
2018-08-17T04:15:14.708Z,83.91
2018-08-17T04:17:43.081Z,83.99
2018-08-17T04:20:11.740Z,84.30
2018-08-17T04:22:41.152Z,84.29
2018-08-17T04:25:09.520Z,84.10
2018-08-17T04:27:37.936Z,84.13
2018-08-17T04:30:06.825Z,83.06
2018-08-17T04:32:35.307Z,82.55
2018-08-17T04:35:03.705Z,80.82
2018-08-17T04:37:32.085Z,81.65
2018-08-17T04:40:00.925Z,80.92
2018-08-17T04:42:29.429Z,81.55
2018-08-17T04:44:57.764Z,82.46
2018-08-17T04:47:26.120Z,82.53
2018-08-17T04:49:54.797Z,82.12
2018-08-17T04:52:23.164Z,81.30
2018-08-17T04:54:51.616Z,82.11
2018-08-17T04:57:19.960Z,81.05
2018-08-17T04:59:48.344Z,80.79
2018-08-17T05:02:16.728Z,81.20
2018-08-17T05:04:45.572Z,78.92
2018-08-17T05:07:14.340Z,78.72
2018-08-17T05:09:42.712Z,77.94
2018-08-17T05:12:11.103Z,77.97
2018-08-17T05:14:39.559Z,77.13
2018-08-17T05:17:07.999Z,76.92
2018-08-17T05:19:36.643Z,77.85
2018-08-17T05:22:05.029Z,77.25
2018-08-17T05:24:33.481Z,76.38
2018-08-17T05:27:02.492Z,76.27
2018-08-17T05:29:30.884Z,77.06
2018-08-17T05:31:59.270Z,75.87
2018-08-17T05:34:27.659Z,76.05
2018-08-17T05:36:56.040Z,76.47
2018-08-17T05:39:24.465Z,76.09
2018-08-17T05:41:52.884Z,75.98
2018-08-17T05:44:21.268Z,76.13
2018-08-17T05:46:49.653Z,76.26
2018-08-17T05:49:18.329Z,75.79
2018-08-17T05:51:46.696Z,76.08
2018-08-17T05:54:15.085Z,76.82
2018-08-17T05:56:44.172Z,78.30
2018-08-17T05:59:12.456Z,76.98
2018-08-17T06:01:40.833Z,78.52
2018-08-17T06:04:09.580Z,78.20
2018-08-17T06:06:37.932Z,77.87
2018-08-17T06:09:07.126Z,77.47
2018-08-17T06:11:35.892Z,76.48
2018-08-17T06:14:04.773Z,76.29
2018-08-17T06:16:33.160Z,75.42
2018-08-17T06:19:01.532Z,77.88
2018-08-17T06:21:30.236Z,77.24
2018-08-17T06:23:58.630Z,77.31
2018-08-17T06:26:27.016Z,76.58
2018-08-17T06:28:55.401Z,76.64
2018-08-17T06:31:23.835Z,75.91
2018-08-17T06:33:52.257Z,75.90
2018-08-17T06:36:20.616Z,75.61
2018-08-17T06:38:49.024Z,76.96
2018-08-17T06:41:17.369Z,76.33
2018-08-17T06:43:45.964Z,75.67
2018-08-17T06:46:14.341Z,77.51
2018-08-17T06:48:42.724Z,77.19
2018-08-17T06:51:11.590Z,76.10
2018-08-17T06:53:39.867Z,75.79
2018-08-17T06:56:08.287Z,74.48
2018-08-17T06:58:36.661Z,74.87
2018-08-17T07:01:05.044Z,76.11
2018-08-17T07:03:33.388Z,76.72
2018-08-17T07:06:01.800Z,76.95
2018-08-17T07:08:30.160Z,76.74
2018-08-17T07:10:59.481Z,75.52
2018-08-17T07:13:27.863Z,76.13
2018-08-17T07:15:56.517Z,75.21
2018-08-17T07:18:24.840Z,75.52
2018-08-17T07:20:53.207Z,75.25
2018-08-17T07:23:21.664Z,73.96
2018-08-17T07:25:50.371Z,74.09
2018-08-17T07:28:18.815Z,73.85
2018-08-17T07:30:47.555Z,72.06
2018-08-17T07:33:16.168Z,73.44
2018-08-17T07:35:44.957Z,74.08
2018-08-17T07:38:13.311Z,73.79
2018-08-17T07:40:41.704Z,74.31
2018-08-17T07:43:10.834Z,72.08
2018-08-17T07:45:39.224Z,72.28
2018-08-17T07:48:07.729Z,71.82
2018-08-17T07:50:35.974Z,71.18
2018-08-17T07:53:04.362Z,70.49
2018-08-17T07:55:32.980Z,70.09
2018-08-17T07:58:01.316Z,70.83
2018-08-17T08:00:29.680Z,71.91
2018-08-17T08:02:58.045Z,70.71
2018-08-17T08:05:26.432Z,70.10
2018-08-17T08:07:54.763Z,69.29
2018-08-17T08:10:23.220Z,68.42
2018-08-17T08:12:51.571Z,67.76
2018-08-17T08:15:19.961Z,67.40
2018-08-17T08:17:48.304Z,66.02
2018-08-17T08:20:27.311Z,61.49
2018-08-17T08:23:06.877Z,62.13
2018-08-17T08:25:35.256Z,60.45
2018-08-17T08:28:03.648Z,57.47
2018-08-17T08:30:32.024Z,52.82
2018-08-17T08:33:00.364Z,49.14
2018-08-17T08:35:28.736Z,49.81
2018-08-17T08:37:57.145Z,50.50
2018-08-17T08:40:26.044Z,52.58
2018-08-17T08:42:54.844Z,53.67
2018-08-17T08:45:23.309Z,54.00
2018-08-17T08:47:52.237Z,53.80
2018-08-17T08:50:20.580Z,56.40
2018-08-17T08:52:48.909Z,55.79
2018-08-17T08:55:17.347Z,46.10
2018-08-17T08:57:45.696Z,40.67
2018-08-17T09:00:14.315Z,38.40
2018-08-17T09:02:42.657Z,35.40
2018-08-17T09:05:11.629Z,34.90
2018-08-17T09:07:39.989Z,33.99
2018-08-17T09:10:09.556Z,32.27
2018-08-17T09:12:38.208Z,30.93
2018-08-17T09:15:07.947Z,32.74
2018-08-17T09:17:36.292Z,31.34
2018-08-17T09:20:05.691Z,32.20
2018-08-17T09:22:34.080Z,30.37
2018-08-17T09:25:02.440Z,28.87
2018-08-17T09:27:30.787Z,28.07
2018-08-17T09:29:59.153Z,26.03
2018-08-17T09:32:27.554Z,26.69
2018-08-17T09:34:55.893Z,25.13
2018-08-17T09:37:24.984Z,26.36
2018-08-17T09:39:53.572Z,25.63
2018-08-17T09:42:21.960Z,24.61
2018-08-17T09:44:51.021Z,27.17
2018-08-17T09:47:19.381Z,30.17
2018-08-17T09:49:47.736Z,33.13
2018-08-17T09:52:16.106Z,34.01
2018-08-17T09:54:44.475Z,31.03
2018-08-17T09:57:12.888Z,29.60
2018-08-17T09:59:41.244Z,26.02
2018-08-17T10:02:14.936Z,24.28
2018-08-17T10:04:48.415Z,25.23
2018-08-17T10:07:23.444Z,27.60
2018-08-17T10:09:59.912Z,26.04
2018-08-17T10:12:28.332Z,26.49
2018-08-17T10:14:56.659Z,26.19
2018-08-17T10:17:25.047Z,25.33
2018-08-17T10:19:53.416Z,23.92
2018-08-17T10:22:21.809Z,24.40
2018-08-17T10:24:50.132Z,24.83
2018-08-17T10:27:21.575Z,24.31
2018-08-17T10:29:50.249Z,21.83
2018-08-17T10:32:18.589Z,21.13
2018-08-17T10:34:46.948Z,25.34
2018-08-17T10:37:15.344Z,26.31
2018-08-17T10:39:43.672Z,26.76
2018-08-17T10:42:12.088Z,30.05
2018-08-17T10:44:40.434Z,33.76
2018-08-17T10:47:09.119Z,35.36
2018-08-17T10:49:37.451Z,36.36
2018-08-17T10:52:06.120Z,34.55
2018-08-17T10:54:34.463Z,34.59
2018-08-17T10:57:05.437Z,34.24
2018-08-17T10:59:33.788Z,34.24
2018-08-17T11:02:02.180Z,32.69
2018-08-17T11:04:30.572Z,35.80
2018-08-17T11:06:58.931Z,41.50
2018-08-17T11:09:27.281Z,48.13
2018-08-17T11:11:55.968Z,52.28
2018-08-17T11:14:24.315Z,58.30
2018-08-17T11:16:53.025Z,62.44
2018-08-17T11:19:21.321Z,67.59
2018-08-17T11:21:49.684Z,70.68
2018-08-17T11:24:18.036Z,69.63
2018-08-17T11:26:46.429Z,74.27
2018-08-17T11:29:14.761Z,73.16
2018-08-17T11:31:43.126Z,70.56
2018-08-17T11:34:11.477Z,67.71
2018-08-17T11:36:39.839Z,73.90
2018-08-17T11:39:08.420Z,74.76
2018-08-17T11:41:36.760Z,72.38
2018-08-17T11:44:08.709Z,67.89
2018-08-17T11:46:37.076Z,64.82
2018-08-17T11:49:05.440Z,63.39
2018-08-17T11:51:33.831Z,64.85
2018-08-17T11:54:02.286Z,65.22
2018-08-17T11:56:30.572Z,65.87
2018-08-17T11:58:58.912Z,61.91
2018-08-17T12:01:27.770Z,58.01
2018-08-17T12:03:56.261Z,57.36
2018-08-17T12:06:24.992Z,56.78
2018-08-17T12:08:53.805Z,52.27
2018-08-17T12:11:22.144Z,47.90
2018-08-17T12:13:50.548Z,42.65
2018-08-17T12:16:18.908Z,41.49
2018-08-17T12:18:48.268Z,43.12
2018-08-17T12:21:16.572Z,43.77
2018-08-17T12:23:44.933Z,41.20
2018-08-17T12:26:13.304Z,34.72
2018-08-17T12:28:41.676Z,30.23
2018-08-17T12:31:10.052Z,31.37
2018-08-17T12:33:38.405Z,30.10
2018-08-17T12:36:07.088Z,31.81
2018-08-17T12:38:35.456Z,32.38
2018-08-17T12:41:03.814Z,32.37
2018-08-17T12:43:37.008Z,31.18
2018-08-17T12:46:05.408Z,35.69
2018-08-17T12:48:33.813Z,36.25
2018-08-17T12:51:04.227Z,38.56
2018-08-17T12:53:32.656Z,34.76
2018-08-17T12:56:01.035Z,33.01
2018-08-17T12:58:29.408Z,32.61
2018-08-17T13:00:57.739Z,36.31
2018-08-17T13:03:26.105Z,39.36
2018-08-17T13:05:54.792Z,39.95
2018-08-17T13:08:23.179Z,38.27
2018-08-17T13:10:52.064Z,38.69
2018-08-17T13:13:20.931Z,34.84
2018-08-17T13:15:53.590Z,35.00
2018-08-17T13:18:21.971Z,37.32
2018-08-17T13:20:51.197Z,35.73
2018-08-17T13:23:19.828Z,33.85
2018-08-17T13:25:48.191Z,35.06
2018-08-17T13:28:16.560Z,34.23
2018-08-17T13:30:44.936Z,33.24
2018-08-17T13:33:13.316Z,31.99
2018-08-17T13:35:41.649Z,29.72
2018-08-17T13:38:10.023Z,29.76
2018-08-17T13:40:38.625Z,32.74
2018-08-17T13:43:07.024Z,33.23
2018-08-17T13:45:35.495Z,33.35
2018-08-17T13:48:03.883Z,35.07
2018-08-17T13:50:32.217Z,33.30
2018-08-17T13:53:00.609Z,37.07
2018-08-17T13:55:29.013Z,37.22
2018-08-17T13:57:57.348Z,36.39
2018-08-17T14:00:25.684Z,36.94
2018-08-17T14:02:54.083Z,34.12
2018-08-17T14:05:22.669Z,35.77
2018-08-17T14:07:51.044Z,35.63
2018-08-17T14:10:19.924Z,33.77
2018-08-17T14:12:48.288Z,35.64
2018-08-17T14:15:17.142Z,35.66
2018-08-17T14:17:45.501Z,36.30
2018-08-17T14:20:15.744Z,35.14
2018-08-17T14:22:44.076Z,33.50
2018-08-17T14:25:12.717Z,33.38
2018-08-17T14:27:41.100Z,32.87
2018-08-17T14:30:12.109Z,34.74
2018-08-17T14:32:40.573Z,36.05
2018-08-17T14:35:09.112Z,35.78
2018-08-17T14:37:37.490Z,37.61
2018-08-17T14:40:06.088Z,37.91
2018-08-17T14:42:34.427Z,40.42
2018-08-17T14:45:02.811Z,40.45
2018-08-17T14:47:31.285Z,37.66
2018-08-17T14:49:59.662Z,40.06
2018-08-17T14:52:28.068Z,41.90
2018-08-17T14:54:56.934Z,39.24
2018-08-17T14:57:25.337Z,42.89
2018-08-17T14:59:53.748Z,44.25
2018-08-17T15:02:23.431Z,44.73
2018-08-17T15:04:51.841Z,45.36
2018-08-17T15:07:20.997Z,43.34
2018-08-17T15:09:49.414Z,43.60
2018-08-17T15:12:17.776Z,44.02
2018-08-17T15:14:46.136Z,44.30
2018-08-17T15:17:14.981Z,44.51
2018-08-17T15:19:43.742Z,46.85
2018-08-17T15:22:12.364Z,45.74
2018-08-17T15:24:40.725Z,47.30
2018-08-17T15:27:09.050Z,48.27
2018-08-17T15:29:37.760Z,48.14
2018-08-17T15:32:06.340Z,50.38
2018-08-17T15:34:35.993Z,49.93
2018-08-17T15:37:04.428Z,48.84
2018-08-17T15:39:32.780Z,50.48
2018-08-17T15:42:01.579Z,50.29
2018-08-17T15:44:30.296Z,51.76
2018-08-17T15:46:59.591Z,51.14
2018-08-17T15:49:34.753Z,51.15
2018-08-17T15:52:07.277Z,51.37
2018-08-17T15:54:35.857Z,50.93
2018-08-17T15:57:04.280Z,50.90
2018-08-17T15:59:33.007Z,52.66
2018-08-17T16:02:01.405Z,50.55
2018-08-17T16:04:30.101Z,50.70
2018-08-17T16:06:58.481Z,50.56
2018-08-17T16:09:27.094Z,52.50
2018-08-17T16:11:55.431Z,52.62
2018-08-17T16:14:23.785Z,52.71
2018-08-17T16:16:52.120Z,52.59
2018-08-17T16:19:20.509Z,53.01
2018-08-17T16:21:49.295Z,52.67
2018-08-17T16:24:17.672Z,52.52
2018-08-17T16:26:46.044Z,54.73
2018-08-17T16:29:14.403Z,54.61
2018-08-17T16:31:44.042Z,55.22
2018-08-17T16:34:12.581Z,55.66
2018-08-17T16:36:42.389Z,55.70
2018-08-17T16:39:17.248Z,55.86
2018-08-17T16:41:46.570Z,57.59
2018-08-17T16:44:15.232Z,57.14
2018-08-17T16:46:44.108Z,57.79
2018-08-17T16:49:13.001Z,57.81
2018-08-17T16:51:41.844Z,58.71
2018-08-17T16:54:10.624Z,57.91
2018-08-17T16:56:39.188Z,56.89
2018-08-17T16:59:07.835Z,57.30
2018-08-17T17:01:36.181Z,56.04
2018-08-17T17:04:04.544Z,56.85
2018-08-17T17:06:32.989Z,57.05
2018-08-17T17:09:04.767Z,58.13
2018-08-17T17:11:33.149Z,59.04
2018-08-17T17:14:01.489Z,59.15
2018-08-17T17:17:01.041Z,59.74
2018-08-17T17:19:29.405Z,59.62
2018-08-17T17:21:57.744Z,59.98
2018-08-17T17:24:26.871Z,61.09
2018-08-17T17:26:55.300Z,62.20
2018-08-17T17:29:23.909Z,61.75
2018-08-17T17:31:52.852Z,61.18
2018-08-17T17:34:21.196Z,61.84
2018-08-17T17:36:49.536Z,62.41
2018-08-17T17:39:17.925Z,62.14
2018-08-17T17:41:46.291Z,62.72
2018-08-17T17:44:14.623Z,62.93
2018-08-17T17:46:42.997Z,62.97
2018-08-17T17:49:11.692Z,62.52
2018-08-17T17:51:40.349Z,62.84
2018-08-17T17:54:08.751Z,63.54
2018-08-17T17:56:37.532Z,63.48
2018-08-17T17:59:10.900Z,63.56
2018-08-17T18:01:39.268Z,63.58
2018-08-17T18:04:07.689Z,63.21
2018-08-17T18:06:36.233Z,64.46
2018-08-17T18:09:05.645Z,64.79
2018-08-17T18:11:34.027Z,64.58
2018-08-17T18:14:02.406Z,63.74
2018-08-17T18:16:30.789Z,63.96
2018-08-17T18:18:59.160Z,64.39
2018-08-17T18:21:30.763Z,64.39
2018-08-17T18:24:17.268Z,64.98
2018-08-17T18:26:48.031Z,64.58
2018-08-17T18:29:16.576Z,65.84
2018-08-17T18:31:45.000Z,65.86
2018-08-17T18:34:14.151Z,66.25
2018-08-17T18:36:42.905Z,65.94
2018-08-17T18:39:12.998Z,66.57
2018-08-17T18:41:41.468Z,66.99
2018-08-17T18:44:10.360Z,65.95
2018-08-17T18:46:38.870Z,66.35
2018-08-17T18:49:07.372Z,65.33
2018-08-17T18:51:36.008Z,66.24
2018-08-17T18:54:04.424Z,66.14
2018-08-17T18:56:32.788Z,65.99
2018-08-17T18:59:01.161Z,66.84
2018-08-17T19:01:29.506Z,67.72
2018-08-17T19:03:57.836Z,67.56
2018-08-17T19:06:26.616Z,67.26
2018-08-17T19:08:54.960Z,66.93
2018-08-17T19:11:23.839Z,66.51
2018-08-17T19:13:52.204Z,66.74
2018-08-17T19:16:20.840Z,66.57
2018-08-17T19:18:49.208Z,67.84
2018-08-17T19:21:18.700Z,67.82
2018-08-17T19:23:47.473Z,67.24
2018-08-17T19:26:16.048Z,68.27
2018-08-17T19:28:44.552Z,68.63
2018-08-17T19:31:13.420Z,68.71
2018-08-17T19:33:42.192Z,68.45
2018-08-17T19:36:10.564Z,68.96
2018-08-17T19:38:41.772Z,69.17
2018-08-17T19:41:10.364Z,69.59
2018-08-17T19:43:38.916Z,70.24
2018-08-17T19:46:07.537Z,70.12
2018-08-17T19:48:36.083Z,69.79
2018-08-17T19:51:24.164Z,70.15
2018-08-17T19:53:52.824Z,71.56
2018-08-17T19:56:21.525Z,70.84
2018-08-17T19:58:49.856Z,71.00
2018-08-17T20:01:18.219Z,71.47
2018-08-17T20:03:46.554Z,71.18
2018-08-17T20:06:14.924Z,72.30
2018-08-17T20:08:43.277Z,71.86
2018-08-17T20:11:11.680Z,71.61
2018-08-17T20:13:40.008Z,72.13
2018-08-17T20:16:16.899Z,73.04
2018-08-17T20:18:45.234Z,72.36
2018-08-17T20:21:14.911Z,73.75
2018-08-17T20:23:43.347Z,73.23
2018-08-17T20:26:12.193Z,74.24
2018-08-17T20:28:40.751Z,74.77
2018-08-17T20:31:09.193Z,75.13
2018-08-17T20:33:38.377Z,74.91
2018-08-17T20:36:06.737Z,76.10
2018-08-17T20:38:35.175Z,75.42
2018-08-17T20:41:03.560Z,75.86
2018-08-17T20:43:31.934Z,76.03
2018-08-17T20:46:00.366Z,75.85
2018-08-17T20:48:28.745Z,75.93
2018-08-17T20:50:57.604Z,76.31
2018-08-17T20:53:26.582Z,75.68
2018-08-17T20:55:54.931Z,75.60
2018-08-17T20:58:23.710Z,75.13
2018-08-17T21:00:52.057Z,76.07
2018-08-17T21:03:20.416Z,76.91
2018-08-17T21:05:48.868Z,76.91
2018-08-17T21:08:17.643Z,76.70
2018-08-17T21:10:46.209Z,76.80
2018-08-17T21:13:15.208Z,78.01
2018-08-17T21:15:44.055Z,78.71
2018-08-17T21:18:12.405Z,78.73
2018-08-17T21:20:40.852Z,78.17
2018-08-17T21:23:09.441Z,78.39
2018-08-17T21:25:37.788Z,79.39
2018-08-17T21:28:06.169Z,79.04
2018-08-17T21:30:34.499Z,78.47
2018-08-17T21:33:02.871Z,78.67
2018-08-17T21:35:31.901Z,78.87
2018-08-17T21:38:00.268Z,78.45
2018-08-17T21:40:29.724Z,79.37
2018-08-17T21:43:00.477Z,78.81
2018-08-17T21:45:28.832Z,78.86
2018-08-17T21:47:57.215Z,79.07
2018-08-17T21:50:25.592Z,79.15
2018-08-17T21:52:53.967Z,79.04
2018-08-17T21:55:22.376Z,79.19
2018-08-17T21:57:50.936Z,79.30
2018-08-17T22:00:22.103Z,79.46
2018-08-17T22:02:50.832Z,79.44
2018-08-17T22:05:34.176Z,79.62
2018-08-17T22:08:02.687Z,80.12
2018-08-17T22:10:31.427Z,79.88
2018-08-17T22:12:59.809Z,79.44
2018-08-17T22:15:29.871Z,80.01
2018-08-17T22:17:58.268Z,79.61
2018-08-17T22:20:26.663Z,79.89
2018-08-17T22:22:55.056Z,79.55
2018-08-17T22:25:23.488Z,79.58
2018-08-17T22:27:51.859Z,79.58
2018-08-17T22:30:23.171Z,79.59
2018-08-17T22:32:52.030Z,80.11
2018-08-17T22:35:20.473Z,79.64
2018-08-17T22:37:49.245Z,79.73
2018-08-17T22:40:18.212Z,79.51
2018-08-17T22:42:47.297Z,79.36
2018-08-17T22:45:48.936Z,79.81
2018-08-17T22:48:17.416Z,80.60
2018-08-17T22:50:46.568Z,80.77
2018-08-17T22:53:14.945Z,80.77
2018-08-17T22:55:43.716Z,80.99
2018-08-17T22:58:12.053Z,80.11
2018-08-17T23:00:40.439Z,80.22
2018-08-17T23:03:08.856Z,80.45
2018-08-17T23:05:37.330Z,80.17
2018-08-17T23:08:06.011Z,80.31
2018-08-17T23:10:34.376Z,80.75
2018-08-17T23:13:02.795Z,80.71
2018-08-17T23:15:31.156Z,81.18
2018-08-17T23:18:00.657Z,81.02
2018-08-17T23:20:35.368Z,80.25
2018-08-17T23:23:05.286Z,81.04
2018-08-17T23:25:33.784Z,80.92
2018-08-17T23:28:02.161Z,80.92
2018-08-17T23:30:30.531Z,82.08
2018-08-17T23:32:59.196Z,82.33
2018-08-17T23:35:27.576Z,82.54
2018-08-17T23:37:55.964Z,82.54
2018-08-17T23:40:24.387Z,82.20
2018-08-17T23:42:52.739Z,81.88
2018-08-17T23:45:21.132Z,82.25
2018-08-17T23:47:49.484Z,82.41
2018-08-17T23:50:18.592Z,82.08
2018-08-17T23:52:46.948Z,81.90
2018-08-17T23:55:16.893Z,82.03
2018-08-17T23:57:45.293Z,82.76
